Lewisville's Hourly Summary for Sunday, July 8, 2018
Hour Temp
(f)
RH
(%)
Solar Rad.
(MJ/m2)
Rainfall
(in)
Wind
(mph)
7/8/2018 12:00 AM 80 61 0 0 0.23
7/8/2018 1:00 AM 81 62 0 0 2.52
7/8/2018 2:00 AM 80 66 0 0 0.91
7/8/2018 3:00 AM 77 70 0 0 0.02
7/8/2018 4:00 AM 75 80 0 0 0
7/8/2018 5:00 AM 74 83 0 0 0
7/8/2018 6:00 AM 74 85 0.04 0 0
7/8/2018 7:00 AM 78 73 0.45 0 0.09
7/8/2018 8:00 AM 82 63 0.93 0 3.02
7/8/2018 9:00 AM 84 58 1.58 0 4.48
7/8/2018 10:00 AM 85 54 2.43 0 5.09
7/8/2018 11:00 AM 88 48 2.83 0 5.06
7/8/2018 12:00 PM 89 44 2.55 0 5.62
7/8/2018 1:00 PM 90 39 1.79 0 5.52
7/8/2018 2:00 PM 93 34 3.02 0 7.23
7/8/2018 3:00 PM 94 33 2.73 0 7.13
7/8/2018 4:00 PM 94 34 2.39 0 6.81
7/8/2018 5:00 PM 94 34 1.77 0 7.67
7/8/2018 6:00 PM 92 34 0.85 0 6.1
7/8/2018 7:00 PM 89 45 0.34 0 7.06
7/8/2018 8:00 PM 86 51 0.02 0 5.6
7/8/2018 9:00 PM 85 57 0 0 5.61
7/8/2018 10:00 PM 83 59 0 0 5.9
7/8/2018 11:00 PM 82 59 0 0 4.04
Data Summary 84 55 23.72 0.00 3.99